Time;durP1;ratioP1;P1;durP2;ratioP2;P2;SDS_P1;SDS_P2;PMS_P1;PMS_P2;Temp;Humidity;BMP_temperature;BMP_pressure;BME280_temperature;BME280_humidity;BME280_pressure;Samples;Min_cycle;Max_cycle;Signal;HPM_P1;HPM_P2
2022/07/07 00:02:15;;;;;;;5.27;1.60;;;18.70;99.90;;;;;;5015042;28;20241;-75
2022/07/07 00:04:41;;;;;;;2.90;1.57;;;18.80;99.90;;;;;;5033194;28;20199;-75
2022/07/07 00:07:07;;;;;;;2.40;1.23;;;18.80;99.90;;;;;;5032939;28;20179;-75
2022/07/07 00:09:32;;;;;;;3.83;1.90;;;18.80;99.90;;;;;;5014793;28;20242;-75
2022/07/07 00:11:58;;;;;;;3.70;1.50;;;18.70;99.90;;;;;;5032678;28;20218;-75
2022/07/07 00:14:24;;;;;;;3.07;1.50;;;18.70;99.90;;;;;;5032463;28;20554;-75
2022/07/07 00:16:50;;;;;;;8.17;1.63;;;18.70;99.90;;;;;;5032439;28;20175;-75
2022/07/07 00:19:15;;;;;;;3.17;1.57;;;18.70;99.90;;;;;;5032656;28;20251;-76
2022/07/07 00:21:41;;;;;;;1.70;1.20;;;18.70;99.90;;;;;;5014717;28;20222;-77
2022/07/07 00:24:07;;;;;;;3.80;1.50;;;18.80;99.90;;;;;;5032347;28;20586;-75
2022/07/07 00:26:33;;;;;;;5.80;1.60;;;18.70;99.90;;;;;;5014592;28;20279;-77
2022/07/07 00:28:59;;;;;;;2.07;1.47;;;18.70;99.90;;;;;;5032537;28;20231;-76
2022/07/07 00:31:24;;;;;;;2.27;1.27;;;18.70;99.90;;;;;;5032406;28;20739;-75
2022/07/07 00:33:50;;;;;;;2.43;1.70;;;18.70;99.90;;;;;;5032245;28;20228;-75
2022/07/07 00:36:16;;;;;;;5.27;1.50;;;18.70;99.90;;;;;;5032610;28;20172;-75
2022/07/07 00:38:41;;;;;;;2.37;1.47;;;18.60;99.90;;;;;;5032346;28;20173;-75
2022/07/07 00:41:07;;;;;;;2.03;1.50;;;18.60;99.90;;;;;;5032514;28;20677;-76
2022/07/07 00:43:38;;;;;;;4.80;1.57;;;18.60;99.90;;;;;;5035857;28;20196;-75
2022/07/07 00:46:04;;;;;;;2.27;1.43;;;18.60;99.90;;;;;;5035792;28;20281;-75
2022/07/07 00:48:33;;;;;;;3.03;1.53;;;18.60;99.90;;;;;;5036018;28;20231;-76
2022/07/07 00:50:59;;;;;;;4.37;2.13;;;18.60;99.90;;;;;;5035870;28;20176;-75
2022/07/07 00:53:24;;;;;;;3.17;1.73;;;18.60;99.90;;;;;;5035844;28;20606;-75
2022/07/07 00:55:50;;;;;;;2.93;1.90;;;18.60;99.90;;;;;;5036166;28;20172;-75
2022/07/07 00:58:16;;;;;;;4.10;2.20;;;18.60;99.90;;;;;;5017988;28;20176;-75
2022/07/07 01:00:41;;;;;;;2.53;2.17;;;18.40;99.90;;;;;;5035598;28;20583;-76
2022/07/07 01:03:09;;;;;;;5.27;2.10;;;18.60;99.90;;;;;;5017803;28;20188;-75
2022/07/07 01:05:36;;;;;;;4.80;2.30;;;18.60;99.90;;;;;;5035584;28;20598;-75
2022/07/07 01:08:03;;;;;;;3.30;2.10;;;18.50;99.90;;;;;;5035662;28;20255;-75
2022/07/07 01:10:30;;;;;;;2.73;1.87;;;18.60;99.90;;;;;;5035865;28;20595;-75
2022/07/07 01:13:00;;;;;;;3.10;2.40;;;18.50;99.90;;;;;;5035425;28;20261;-76
2022/07/07 01:15:25;;;;;;;5.20;2.87;;;18.50;99.90;;;;;;5018005;28;20582;-77
2022/07/07 01:17:51;;;;;;;2.40;2.17;;;18.50;99.90;;;;;;5035357;28;20216;-75
2022/07/07 01:20:19;;;;;;;3.60;2.37;;;18.50;99.90;;;;;;5017689;28;20168;-75
2022/07/07 01:22:52;;;;;;;3.83;2.40;;;18.50;99.90;;;;;;5035282;28;20204;-75
2022/07/07 01:25:18;;;;;;;6.13;2.40;;;18.50;99.90;;;;;;5035126;28;20196;-75
2022/07/07 01:27:43;;;;;;;2.80;2.40;;;18.50;99.90;;;;;;5035480;28;20169;-75
2022/07/07 01:30:10;;;;;;;4.17;1.83;;;18.50;99.90;;;;;;5035066;28;20203;-75
2022/07/07 01:32:36;;;;;;;3.63;2.23;;;18.50;99.90;;;;;;5017189;28;20692;-75
2022/07/07 01:35:02;;;;;;;2.70;2.10;;;18.50;99.90;;;;;;5034993;28;20173;-77
2022/07/07 01:37:28;;;;;;;3.43;2.30;;;18.40;99.90;;;;;;5034932;28;20165;-75
2022/07/07 01:39:54;;;;;;;3.93;2.07;;;18.40;99.90;;;;;;5035406;28;20171;-76
2022/07/07 01:42:20;;;;;;;5.40;2.40;;;18.40;99.90;;;;;;5035089;28;20172;-75
2022/07/07 01:44:46;;;;;;;4.97;2.73;;;18.30;99.90;;;;;;5016999;28;20230;-75
2022/07/07 01:47:12;;;;;;;5.17;2.67;;;18.30;99.90;;;;;;5034853;28;20709;-76
2022/07/07 01:49:38;;;;;;;5.03;2.20;;;18.30;99.90;;;;;;5034637;28;20294;-75
2022/07/07 01:52:05;;;;;;;7.33;2.40;;;18.30;99.90;;;;;;5016883;28;20173;-75
2022/07/07 01:54:32;;;;;;;3.43;2.60;;;18.30;99.90;;;;;;5016289;28;20701;-75
2022/07/07 01:56:58;;;;;;;3.23;2.50;;;18.30;99.90;;;;;;5034914;28;20172;-75
2022/07/07 01:59:25;;;;;;;3.70;2.60;;;18.30;99.90;;;;;;5034562;28;20172;-75
2022/07/07 02:01:50;;;;;;;3.67;2.57;;;18.20;99.90;;;;;;5034474;28;20230;-75
2022/07/07 02:04:16;;;;;;;7.03;2.57;;;18.20;99.90;;;;;;5016753;28;20710;-75
2022/07/07 02:06:42;;;;;;;4.13;2.43;;;18.20;99.90;;;;;;5034455;28;20611;-75
2022/07/07 02:09:08;;;;;;;4.10;2.40;;;18.20;99.90;;;;;;5016571;28;20199;-76
2022/07/07 02:11:34;;;;;;;5.30;2.57;;;18.20;99.90;;;;;;5034673;28;20504;-75
2022/07/07 02:14:01;;;;;;;4.10;3.10;;;18.20;99.90;;;;;;5034294;28;20547;-75
2022/07/07 02:16:27;;;;;;;2.87;2.40;;;18.20;99.90;;;;;;5034218;28;20708;-75
2022/07/07 02:18:55;;;;;;;5.10;2.17;;;18.20;99.90;;;;;;5034176;28;20576;-75
2022/07/07 02:21:22;;;;;;;2.60;2.07;;;18.20;99.90;;;;;;5034396;28;20176;-75
2022/07/07 02:23:49;;;;;;;6.80;2.80;;;18.10;99.90;;;;;;5033976;28;20200;-75
2022/07/07 02:26:15;;;;;;;3.83;2.30;;;18.10;99.90;;;;;;5016369;28;20176;-75
2022/07/07 02:28:41;;;;;;;5.17;2.30;;;18.10;99.90;;;;;;5033923;28;20218;-75
2022/07/07 02:31:07;;;;;;;5.10;2.60;;;18.10;99.90;;;;;;5034231;28;20609;-75
2022/07/07 02:33:33;;;;;;;6.27;2.43;;;18.00;99.90;;;;;;5033897;28;20196;-75
2022/07/07 02:35:59;;;;;;;4.00;2.20;;;18.10;99.90;;;;;;5033850;28;20176;-75
2022/07/07 02:38:25;;;;;;;4.43;2.43;;;18.10;99.90;;;;;;5033823;28;20206;-75
2022/07/07 02:40:51;;;;;;;5.03;2.30;;;18.10;99.90;;;;;;5034084;28;20263;-75
2022/07/07 02:43:18;;;;;;;4.47;2.40;;;18.00;99.90;;;;;;5015947;28;20249;-75
2022/07/07 02:45:45;;;;;;;4.00;2.80;;;18.00;99.90;;;;;;5033805;28;20203;-76
2022/07/07 02:48:14;;;;;;;2.37;2.00;;;18.00;99.90;;;;;;5033847;28;20642;-75
2022/07/07 02:50:40;;;;;;;3.70;2.13;;;18.00;99.90;;;;;;5033932;28;20210;-75
2022/07/07 02:53:10;;;;;;;5.23;2.30;;;18.00;99.90;;;;;;5033496;28;20196;-75
2022/07/07 02:55:36;;;;;;;5.00;2.30;;;18.10;99.90;;;;;;5033481;28;20757;-75
2022/07/07 02:58:04;;;;;;;3.77;2.40;;;18.10;99.90;;;;;;5033470;28;20168;-75
2022/07/07 03:00:33;;;;;;;5.00;2.90;;;18.10;99.90;;;;;;5015688;28;20211;-75
2022/07/07 03:03:00;;;;;;;4.73;2.40;;;18.10;99.90;;;;;;5015669;28;20204;-75
2022/07/07 03:05:25;;;;;;;4.30;2.60;;;18.10;99.90;;;;;;5032850;28;20275;-75
2022/07/07 03:07:51;;;;;;;5.37;2.50;;;18.10;99.90;;;;;;5033359;28;20238;-75
2022/07/07 03:10:16;;;;;;;3.77;2.33;;;18.10;99.90;;;;;;5033446;28;20199;-76
2022/07/07 03:12:42;;;;;;;5.40;2.80;;;18.10;99.90;;;;;;5033248;28;20192;-75
2022/07/07 03:15:08;;;;;;;3.63;2.50;;;18.20;99.90;;;;;;5033279;28;20638;-75
2022/07/07 03:17:35;;;;;;;3.30;2.50;;;18.20;99.90;;;;;;5033379;28;20175;-76
2022/07/07 03:20:01;;;;;;;5.03;2.80;;;18.20;99.90;;;;;;5015474;28;20183;-76
2022/07/07 03:22:27;;;;;;;3.50;2.47;;;18.20;99.90;;;;;;5033333;28;20188;-75
2022/07/07 03:24:52;;;;;;;4.97;2.57;;;18.20;99.90;;;;;;5033178;28;20230;-75
2022/07/07 03:27:18;;;;;;;4.50;2.60;;;18.20;99.90;;;;;;5033120;28;20586;-76
2022/07/07 03:29:43;;;;;;;5.90;2.67;;;18.20;99.90;;;;;;5033042;28;20200;-75
2022/07/07 03:32:09;;;;;;;8.40;3.10;;;18.20;99.90;;;;;;5033292;28;20172;-75
2022/07/07 03:34:35;;;;;;;4.80;2.60;;;18.20;99.90;;;;;;5033494;28;20735;-75
2022/07/07 03:37:01;;;;;;;3.67;2.73;;;18.10;99.90;;;;;;5032959;28;20180;-75
2022/07/07 03:39:27;;;;;;;5.17;3.03;;;18.20;99.90;;;;;;5032887;28;20183;-75
2022/07/07 03:41:52;;;;;;;3.73;3.00;;;18.20;99.90;;;;;;5033011;28;20176;-75
2022/07/07 03:44:18;;;;;;;4.30;2.67;;;18.20;99.90;;;;;;5032962;28;20832;-75
2022/07/07 03:46:44;;;;;;;3.43;2.73;;;18.20;99.90;;;;;;5032811;28;20192;-76
2022/07/07 03:49:10;;;;;;;5.23;2.47;;;18.20;99.90;;;;;;5014955;28;20200;-75
2022/07/07 03:51:36;;;;;;;6.57;2.87;;;18.20;99.90;;;;;;5015094;28;20184;-76
2022/07/07 03:54:02;;;;;;;3.83;2.67;;;18.10;99.90;;;;;;5032856;28;20188;-75
2022/07/07 03:56:27;;;;;;;2.53;2.27;;;18.20;99.90;;;;;;5032839;28;20551;-75
2022/07/07 03:58:53;;;;;;;6.53;3.30;;;18.10;99.90;;;;;;5032820;28;20179;-75
2022/07/07 04:01:18;;;;;;;5.77;2.70;;;18.20;99.90;;;;;;5015055;28;20655;-75
2022/07/07 04:03:44;;;;;;;3.63;2.87;;;18.20;99.90;;;;;;5032782;28;20200;-75
2022/07/07 04:06:09;;;;;;;5.00;2.40;;;18.20;99.90;;;;;;5032681;28;20175;-75
2022/07/07 04:08:35;;;;;;;7.13;2.80;;;18.20;99.90;;;;;;5032672;28;20574;-75
2022/07/07 04:11:00;;;;;;;3.97;2.70;;;18.10;99.90;;;;;;5032996;28;20665;-75
2022/07/07 04:13:26;;;;;;;7.77;2.90;;;18.20;99.90;;;;;;5032574;28;20242;-75
2022/07/07 04:15:52;;;;;;;3.83;2.83;;;18.20;99.90;;;;;;5032661;28;20197;-75
2022/07/07 04:18:17;;;;;;;4.93;2.63;;;18.20;99.90;;;;;;5018313;28;20172;-76
2022/07/07 04:20:43;;;;;;;3.43;2.47;;;18.20;99.90;;;;;;5036501;28;20646;-76
2022/07/07 04:23:08;;;;;;;4.30;2.87;;;18.20;99.90;;;;;;5018524;28;20207;-75
2022/07/07 04:25:34;;;;;;;4.13;2.90;;;18.20;99.90;;;;;;5036317;28;20172;-75
2022/07/07 04:27:59;;;;;;;3.17;2.50;;;18.20;99.90;;;;;;5036598;28;20653;-77
2022/07/07 04:30:25;;;;;;;4.43;2.63;;;18.10;99.90;;;;;;5018359;28;20216;-75
2022/07/07 04:32:51;;;;;;;4.77;2.50;;;18.20;99.90;;;;;;5036184;28;20188;-75
2022/07/07 04:35:16;;;;;;;5.27;2.80;;;18.20;99.90;;;;;;5036283;28;20534;-76
2022/07/07 04:37:42;;;;;;;3.00;2.57;;;18.20;99.90;;;;;;5036563;28;20176;-76
2022/07/07 04:40:08;;;;;;;4.67;2.60;;;18.20;99.90;;;;;;5018587;28;20593;-76
2022/07/07 04:42:34;;;;;;;4.67;3.00;;;18.20;99.90;;;;;;5036124;28;20183;-74
2022/07/07 04:44:59;;;;;;;6.43;3.60;;;18.10;99.90;;;;;;5018049;28;20181;-75
2022/07/07 04:47:25;;;;;;;4.70;3.20;;;18.00;99.90;;;;;;5018472;28;20183;-77
2022/07/07 04:49:51;;;;;;;6.57;3.40;;;18.00;99.90;;;;;;5035901;28;20670;-75
2022/07/07 04:52:17;;;;;;;5.33;3.50;;;17.90;99.90;;;;;;5035915;28;20632;-75
2022/07/07 04:54:43;;;;;;;5.20;3.50;;;17.90;99.90;;;;;;5035773;28;20281;-74
2022/07/07 04:57:08;;;;;;;7.43;3.70;;;17.80;99.90;;;;;;5018067;28;20253;-75
2022/07/07 04:59:34;;;;;;;5.20;3.27;;;17.80;99.90;;;;;;5035948;28;20208;-76
2022/07/07 05:01:59;;;;;;;5.10;3.07;;;17.80;99.90;;;;;;5035689;28;20230;-76
2022/07/07 05:04:25;;;;;;;5.90;2.30;;;17.80;99.90;;;;;;5036079;28;20196;-76
2022/07/07 05:06:51;;;;;;;3.07;2.30;;;17.70;99.90;;;;;;5035832;28;20175;-76
2022/07/07 05:09:16;;;;;;;7.27;3.00;;;17.70;99.90;;;;;;5017774;28;20200;-75
2022/07/07 05:11:42;;;;;;;4.33;2.63;;;17.70;99.90;;;;;;5036060;28;20198;-76
2022/07/07 05:14:07;;;;;;;8.83;2.97;;;17.60;99.90;;;;;;5035407;28;20188;-76
2022/07/07 05:16:33;;;;;;;4.07;2.30;;;17.60;99.90;;;;;;5035475;28;20168;-75
2022/07/07 05:18:58;;;;;;;4.10;2.20;;;17.60;99.90;;;;;;5017653;28;20219;-75
2022/07/07 05:21:24;;;;;;;3.50;2.50;;;17.50;99.90;;;;;;5017586;28;20184;-76
2022/07/07 05:23:50;;;;;;;4.17;2.03;;;17.60;99.90;;;;;;5035208;28;20193;-75
2022/07/07 05:26:15;;;;;;;3.43;2.40;;;17.50;99.90;;;;;;5035480;28;20184;-75
2022/07/07 05:28:41;;;;;;;2.47;1.80;;;17.40;99.90;;;;;;5034575;28;20192;-77
2022/07/07 05:31:12;;;;;;;4.50;2.20;;;17.40;99.90;;;;;;5035083;28;20275;-76
2022/07/07 05:33:38;;;;;;;4.97;2.23;;;17.40;99.90;;;;;;5035466;28;20184;-76
2022/07/07 05:36:04;;;;;;;2.73;2.07;;;17.40;99.90;;;;;;5060654;22;20220;-74
2022/07/07 05:38:30;;;;;;;2.10;1.53;;;17.40;99.90;;;;;;5035730;28;20764;-77
2022/07/07 05:40:56;;;;;;;2.57;1.67;;;17.40;99.90;;;;;;5036028;28;20259;-77
2022/07/07 05:43:22;;;;;;;3.47;1.63;;;17.20;99.90;;;;;;5034101;28;20179;-76
2022/07/07 05:45:47;;;;;;;3.47;1.87;;;17.10;99.90;;;;;;5033911;28;20550;-76
2022/07/07 05:48:13;;;;;;;5.23;1.87;;;17.10;99.90;;;;;;5035212;28;20188;-76
2022/07/07 05:50:38;;;;;;;5.40;1.90;;;17.00;99.90;;;;;;5034981;28;20234;-76
2022/07/07 05:53:04;;;;;;;4.30;1.80;;;17.00;99.90;;;;;;5034862;28;20164;-77
2022/07/07 05:55:29;;;;;;;2.13;1.93;;;17.00;99.90;;;;;;5016971;28;20184;-77
2022/07/07 05:57:56;;;;;;;2.53;1.97;;;17.00;99.90;;;;;;5033465;28;20638;-77
2022/07/07 06:00:23;;;;;;;9.80;3.27;;;17.10;99.90;;;;;;5034792;28;20180;-76
2022/07/07 06:02:49;;;;;;;7.70;2.33;;;17.00;99.90;;;;;;5034402;28;20627;-78
2022/07/07 06:05:14;;;;;;;2.17;1.93;;;17.10;99.90;;;;;;5034294;28;20173;-77
2022/07/07 06:07:40;;;;;;;3.70;2.27;;;17.10;99.90;;;;;;5034728;28;20203;-77
2022/07/07 06:10:07;;;;;;;2.10;1.70;;;17.10;99.90;;;;;;5034561;28;20200;-77
2022/07/07 06:12:32;;;;;;;4.60;2.37;;;17.00;99.90;;;;;;5034595;28;20180;-77
2022/07/07 06:14:58;;;;;;;2.73;2.20;;;17.00;99.90;;;;;;5034480;28;20176;-77
2022/07/07 06:17:23;;;;;;;3.97;1.97;;;17.00;99.90;;;;;;5033129;28;20203;-77
2022/07/07 06:19:49;;;;;;;2.57;1.57;;;17.00;99.90;;;;;;5033077;28;20207;-77
2022/07/07 06:22:15;;;;;;;3.00;1.70;;;17.00;99.90;;;;;;5033364;28;20211;-77
2022/07/07 06:24:41;;;;;;;3.60;2.23;;;17.10;99.90;;;;;;5034608;28;20180;-77
2022/07/07 06:27:07;;;;;;;3.07;1.53;;;17.10;99.90;;;;;;5034357;28;20631;-76
2022/07/07 06:29:32;;;;;;;4.63;1.83;;;17.20;99.90;;;;;;5034073;28;20300;-77
2022/07/07 06:31:58;;;;;;;2.60;2.13;;;17.20;99.90;;;;;;5034023;28;20251;-77
2022/07/07 06:34:23;;;;;;;3.03;1.87;;;17.20;99.90;;;;;;5016311;28;20187;-77
2022/07/07 06:36:49;;;;;;;2.40;1.50;;;17.20;99.90;;;;;;5033406;28;20611;-77
2022/07/07 06:39:14;;;;;;;3.03;1.87;;;17.30;99.90;;;;;;5033106;28;20177;-77
2022/07/07 06:41:40;;;;;;;2.57;1.80;;;17.30;99.90;;;;;;5033501;28;20180;-77
2022/07/07 06:44:09;;;;;;;2.67;1.90;;;17.30;99.90;;;;;;5015922;28;20562;-77
2022/07/07 06:46:35;;;;;;;3.60;1.67;;;17.40;99.90;;;;;;5032617;28;20622;-77
2022/07/07 06:49:00;;;;;;;2.03;1.60;;;17.40;99.90;;;;;;5033282;28;20230;-77
2022/07/07 06:51:26;;;;;;;2.70;1.37;;;17.50;99.90;;;;;;5032984;28;20629;-77
2022/07/07 06:53:52;;;;;;;3.93;1.47;;;17.50;99.90;;;;;;5031679;28;20550;-77
2022/07/07 06:56:17;;;;;;;2.30;1.57;;;17.50;99.90;;;;;;5015022;28;20250;-77
2022/07/07 06:58:43;;;;;;;1.53;1.20;;;17.60;99.90;;;;;;5033148;28;20702;-77
2022/07/07 07:01:08;;;;;;;2.17;1.47;;;17.60;99.90;;;;;;5015316;28;20235;-77
2022/07/07 07:03:34;;;;;;;5.00;1.33;;;17.70;99.90;;;;;;5031557;28;20208;-77
2022/07/07 07:05:59;;;;;;;6.60;1.43;;;17.70;99.90;;;;;;5015094;28;20683;-77
2022/07/07 07:08:25;;;;;;;1.37;1.27;;;17.70;99.90;;;;;;5015096;28;20180;-77
2022/07/07 07:10:51;;;;;;;2.40;1.27;;;17.70;99.90;;;;;;5032776;28;20170;-77
2022/07/07 07:13:16;;;;;;;2.37;1.10;;;17.80;99.90;;;;;;5032782;28;20246;-78
2022/07/07 07:15:42;;;;;;;5.30;1.30;;;17.80;99.90;;;;;;5032816;28;20172;-77
2022/07/07 07:18:08;;;;;;;1.80;0.87;;;17.90;99.90;;;;;;5015064;28;20176;-77
2022/07/07 07:20:33;;;;;;;5.30;1.07;;;18.00;99.90;;;;;;5032860;28;20168;-77
2022/07/07 07:22:59;;;;;;;2.90;0.50;;;18.00;99.90;;;;;;5032816;28;20180;-77
2022/07/07 07:25:25;;;;;;;1.47;0.40;;;18.10;99.90;;;;;;5014770;28;20216;-78
2022/07/07 07:27:50;;;;;;;2.60;0.80;;;18.20;99.90;;;;;;5032483;28;20177;-77
2022/07/07 07:30:16;;;;;;;3.67;0.80;;;18.20;99.90;;;;;;5033587;28;20195;-78
2022/07/07 07:32:43;;;;;;;4.37;0.87;;;18.30;99.90;;;;;;5032536;28;20590;-79
2022/07/07 07:35:09;;;;;;;2.50;0.70;;;18.30;99.90;;;;;;5031485;28;20230;-78
2022/07/07 07:37:35;;;;;;;1.83;0.53;;;18.30;99.90;;;;;;4997473;28;1038100;-77
2022/07/07 07:40:01;;;;;;;1.80;0.67;;;18.30;99.90;;;;;;5015599;28;20709;-78
2022/07/07 07:42:26;;;;;;;2.20;0.60;;;18.40;99.90;;;;;;5033348;28;20219;-77
2022/07/07 07:45:10;;;;;;;1.83;0.80;;;18.50;99.90;;;;;;5033696;28;20195;-77
2022/07/07 07:47:43;;;;;;;2.53;0.70;;;18.60;99.90;;;;;;5033124;28;20202;-78
2022/07/07 07:50:17;;;;;;;4.73;0.57;;;18.60;99.90;;;;;;5015788;28;20211;-78
2022/07/07 07:52:43;;;;;;;2.63;0.83;;;18.60;99.90;;;;;;5035649;28;20177;-78
2022/07/07 07:55:11;;;;;;;1.40;0.70;;;18.60;99.90;;;;;;5037474;28;20173;-78
2022/07/07 07:57:37;;;;;;;1.57;0.80;;;18.50;99.90;;;;;;5037364;28;20216;-78
2022/07/07 08:00:05;;;;;;;2.50;0.97;;;18.50;99.90;;;;;;5037364;28;20195;-77
2022/07/07 08:02:30;;;;;;;7.07;1.20;;;18.50;99.90;;;;;;5037118;28;20207;-77
2022/07/07 08:04:56;;;;;;;5.47;1.30;;;18.50;99.90;;;;;;5019302;28;20618;-77
2022/07/07 08:07:21;;;;;;;2.60;1.03;;;18.40;99.90;;;;;;5036778;28;20196;-78
2022/07/07 08:09:47;;;;;;;3.23;0.90;;;18.30;99.90;;;;;;5019328;28;20227;-77
2022/07/07 08:12:13;;;;;;;2.33;0.77;;;18.30;99.90;;;;;;5035553;28;20225;-78
2022/07/07 08:14:38;;;;;;;3.93;1.00;;;18.40;99.90;;;;;;5019133;28;20176;-77
2022/07/07 08:17:04;;;;;;;2.10;0.93;;;18.50;99.90;;;;;;5019031;28;20228;-78
2022/07/07 08:19:30;;;;;;;3.00;0.93;;;18.50;99.90;;;;;;5036957;28;20172;-77
2022/07/07 08:21:55;;;;;;;2.90;0.57;;;18.50;99.90;;;;;;5036649;28;20212;-77
2022/07/07 08:24:21;;;;;;;2.27;0.60;;;18.50;99.90;;;;;;5036556;28;20639;-77
2022/07/07 08:26:46;;;;;;;2.30;0.57;;;18.40;99.90;;;;;;5036418;28;20236;-77
2022/07/07 08:29:13;;;;;;;2.00;0.60;;;18.30;99.90;;;;;;5034944;28;20204;-77
2022/07/07 08:31:39;;;;;;;2.87;0.83;;;18.20;99.90;;;;;;5036403;28;20531;-77
2022/07/07 08:34:05;;;;;;;2.27;0.80;;;18.30;99.90;;;;;;5036061;28;20169;-77
2022/07/07 08:36:31;;;;;;;1.37;0.80;;;18.40;99.90;;;;;;5035715;28;20685;-77
2022/07/07 08:38:57;;;;;;;3.70;0.87;;;18.50;99.90;;;;;;5018439;28;20229;-77
2022/07/07 08:41:23;;;;;;;6.63;2.13;;;18.70;99.90;;;;;;5036291;28;20536;-77
2022/07/07 08:43:50;;;;;;;1.23;0.70;;;18.80;99.90;;;;;;5035930;28;20183;-77
2022/07/07 08:46:15;;;;;;;2.13;0.67;;;19.00;99.90;;;;;;5018222;28;20319;-77
2022/07/07 08:48:41;;;;;;;1.67;0.67;;;19.00;99.90;;;;;;5018134;28;20286;-77
2022/07/07 08:51:07;;;;;;;3.37;0.90;;;18.90;99.90;;;;;;5018093;28;20180;-77
2022/07/07 08:53:35;;;;;;;4.13;1.10;;;19.00;99.90;;;;;;5035828;28;20179;-77
2022/07/07 08:56:05;;;;;;;5.03;1.00;;;19.00;99.90;;;;;;5035516;28;20195;-76
2022/07/07 08:58:32;;;;;;;1.90;0.90;;;18.80;99.90;;;;;;5035852;28;20223;-75
2022/07/07 09:00:58;;;;;;;3.37;0.87;;;18.90;99.90;;;;;;5035503;28;20164;-75
2022/07/07 09:03:26;;;;;;;3.00;0.67;;;18.90;99.90;;;;;;5016415;28;20630;-77
2022/07/07 09:05:52;;;;;;;2.83;0.80;;;18.80;99.90;;;;;;5017900;28;20227;-77
2022/07/07 09:08:22;;;;;;;3.50;0.90;;;18.80;99.90;;;;;;5017725;28;20169;-77
2022/07/07 09:10:48;;;;;;;4.63;1.10;;;18.80;99.90;;;;;;5035503;28;20168;-77
2022/07/07 09:13:28;;;;;;;2.23;0.67;;;18.70;99.90;;;;;;5036040;28;20160;-77
2022/07/07 09:16:00;;;;;;;4.13;0.73;;;18.60;99.90;;;;;;5018117;28;20192;-77
2022/07/07 09:18:32;;;;;;;3.57;1.00;;;18.50;99.90;;;;;;5035709;28;20149;-77
2022/07/07 09:20:58;;;;;;;4.77;1.00;;;18.40;99.90;;;;;;5035796;28;20177;-77
2022/07/07 09:23:24;;;;;;;3.23;0.67;;;18.40;99.90;;;;;;5035249;28;20169;-77
2022/07/07 09:25:50;;;;;;;2.60;0.70;;;18.20;99.90;;;;;;5035109;28;20267;-77
2022/07/07 09:28:16;;;;;;;3.70;0.73;;;18.20;99.90;;;;;;5035259;28;20176;-76
2022/07/07 09:30:43;;;;;;;3.17;0.70;;;18.20;99.90;;;;;;5034984;28;20204;-77
2022/07/07 09:33:15;;;;;;;2.30;0.90;;;18.30;99.90;;;;;;5034688;28;20230;-77
2022/07/07 09:38:30;;;;;;;4.43;1.13;;;18.50;99.90;;;;;;5035311;28;20256;-77
2022/07/07 09:40:59;;;;;;;0.97;0.47;;;18.50;99.90;;;;;;5034924;28;20179;-77
2022/07/07 09:43:27;;;;;;;1.27;0.70;;;18.50;99.90;;;;;;5034817;28;20176;-77
2022/07/07 09:46:33;;;;;;;3.63;1.07;;;18.40;99.90;;;;;;5034579;28;20550;-77
2022/07/07 09:49:00;;;;;;;1.93;0.90;;;18.40;99.90;;;;;;4954566;29;20210;-77
2022/07/07 09:51:33;;;;;;;0.60;0.57;;;18.30;99.90;;;;;;4954600;29;20551;-77
2022/07/07 09:54:10;;;;;;;2.67;0.57;;;18.20;99.90;;;;;;4980702;28;20184;-76
2022/07/07 09:56:42;;;;;;;3.27;0.70;;;18.10;99.90;;;;;;5016828;28;20246;-77
2022/07/07 09:59:11;;;;;;;3.93;0.80;;;18.00;99.90;;;;;;5034604;28;20255;-77
2022/07/07 10:01:40;;;;;;;1.93;0.70;;;18.10;99.90;;;;;;5016733;28;20704;-77
2022/07/07 10:04:08;;;;;;;2.50;0.73;;;18.20;99.90;;;;;;5033212;28;20192;-76
2022/07/07 10:06:36;;;;;;;3.17;1.10;;;18.40;99.90;;;;;;5034374;28;20593;-76
2022/07/07 10:09:16;;;;;;;2.47;0.60;;;18.40;99.90;;;;;;5033084;28;20223;-77
2022/07/07 10:11:53;;;;;;;2.23;0.90;;;18.40;99.90;;;;;;5034366;28;20156;-77
2022/07/07 10:14:18;;;;;;;1.83;0.80;;;18.50;99.90;;;;;;5016056;28;20172;-77
2022/07/07 10:16:46;;;;;;;1.23;0.60;;;18.50;99.90;;;;;;5016423;28;20258;-75
2022/07/07 10:19:14;;;;;;;2.13;0.87;;;18.50;99.90;;;;;;5034524;28;20177;-77
2022/07/07 10:21:48;;;;;;;2.90;0.70;;;18.60;99.90;;;;;;5034144;28;20173;-77
2022/07/07 10:24:16;;;;;;;2.73;0.60;;;18.70;99.90;;;;;;5032897;28;20167;-77
2022/07/07 10:26:53;;;;;;;2.07;0.70;;;18.90;99.90;;;;;;5032765;28;20196;-77
2022/07/07 10:29:45;;;;;;;1.60;0.70;;;18.90;99.90;;;;;;5033876;28;20234;-77
2022/07/07 10:32:16;;;;;;;5.70;0.60;;;19.00;99.90;;;;;;5034290;28;20155;-77
2022/07/07 10:34:50;;;;;;;0.87;0.60;;;19.00;99.90;;;;;;5033931;28;20211;-77
2022/07/07 10:37:16;;;;;;;1.47;0.70;;;19.00;99.90;;;;;;5033736;28;20212;-77
2022/07/07 10:39:56;;;;;;;1.70;0.53;;;19.00;99.90;;;;;;5033921;28;20258;-77
2022/07/07 10:42:38;;;;;;;2.33;0.70;;;18.80;99.90;;;;;;5034342;28;20180;-76
2022/07/07 10:45:05;;;;;;;2.70;0.60;;;18.80;99.90;;;;;;5033748;28;20620;-77
2022/07/07 10:47:32;;;;;;;2.43;0.60;;;18.80;99.90;;;;;;5033658;28;20569;-77
2022/07/07 10:49:59;;;;;;;2.27;0.70;;;18.80;99.90;;;;;;5032442;28;20203;-77
2022/07/07 10:52:42;;;;;;;0.87;0.53;;;18.80;99.90;;;;;;5033542;28;20207;-77
2022/07/07 10:55:08;;;;;;;0.97;0.53;;;18.80;99.90;;;;;;5033844;28;20161;-77
2022/07/07 10:57:47;;;;;;;2.87;1.00;;;18.80;99.90;;;;;;5033694;28;20267;-77
2022/07/07 11:00:25;;;;;;;1.53;0.63;;;18.70;99.90;;;;;;5033498;28;20657;-77
2022/07/07 11:03:07;;;;;;;2.37;0.70;;;18.80;99.90;;;;;;5033841;28;20156;-77
2022/07/07 11:05:33;;;;;;;1.97;0.60;;;18.80;99.90;;;;;;5032185;28;20183;-76
2022/07/07 11:07:59;;;;;;;1.40;0.90;;;18.80;99.90;;;;;;5033258;28;20172;-77
2022/07/07 11:10:37;;;;;;;2.33;0.73;;;18.80;99.90;;;;;;5033389;28;20206;-77
2022/07/07 11:13:35;;;;;;;1.40;0.67;;;18.80;99.90;;;;;;5033838;28;20176;-77
2022/07/07 11:16:09;;;;;;;1.23;0.40;;;18.70;99.90;;;;;;5033467;28;20654;-76
2022/07/07 11:18:35;;;;;;;1.67;0.60;;;18.70;99.90;;;;;;5034030;28;20589;-77
2022/07/07 11:21:03;;;;;;;5.17;1.07;;;18.60;99.90;;;;;;5033285;28;20206;-77
2022/07/07 11:23:47;;;;;;;3.87;0.70;;;18.60;99.90;;;;;;5033270;28;20638;-77
2022/07/07 11:26:16;;;;;;;3.40;0.60;;;18.50;99.90;;;;;;5014755;28;20188;-77
2022/07/07 11:28:41;;;;;;;1.33;0.50;;;18.50;99.90;;;;;;5015320;28;20255;-77
2022/07/07 11:31:08;;;;;;;4.90;1.03;;;18.50;99.90;;;;;;5032115;28;20267;-77
2022/07/07 11:33:35;;;;;;;4.20;0.70;;;18.60;99.90;;;;;;5033184;28;20650;-77
2022/07/07 11:36:21;;;;;;;1.30;0.50;;;18.60;99.90;;;;;;5034188;28;20199;-77
2022/07/07 11:38:51;;;;;;;1.33;0.60;;;18.60;99.90;;;;;;5033235;28;20191;-77
2022/07/07 11:41:17;;;;;;;1.73;0.70;;;18.70;99.90;;;;;;5033881;28;20540;-77
2022/07/07 11:43:43;;;;;;;0.30;0.30;;;18.80;99.90;;;;;;5033670;28;20176;-77
2022/07/07 11:46:08;;;;;;;1.23;0.43;;;19.00;99.90;;;;;;5033940;28;20191;-77
2022/07/07 11:48:36;;;;;;;0.50;0.50;;;19.00;99.90;;;;;;5033662;28;20176;-77
2022/07/07 11:51:02;;;;;;;1.67;0.63;;;19.20;99.90;;;;;;5032995;28;20638;-77
2022/07/07 11:53:28;;;;;;;1.13;0.40;;;19.20;99.90;;;;;;5015200;28;20650;-77
2022/07/07 11:55:54;;;;;;;2.50;0.60;;;19.10;99.90;;;;;;5032837;28;20242;-77
2022/07/07 11:58:19;;;;;;;0.50;0.50;;;19.00;99.90;;;;;;5032823;28;20165;-76
2022/07/07 12:00:45;;;;;;;1.07;0.50;;;19.00;99.90;;;;;;5015153;28;20184;-77
2022/07/07 12:03:11;;;;;;;1.03;0.67;;;18.80;99.90;;;;;;5015165;28;20639;-77
2022/07/07 12:05:43;;;;;;;2.07;0.60;;;18.60;99.90;;;;;;5032663;28;20572;-77
2022/07/07 12:08:11;;;;;;;2.50;0.60;;;18.60;99.90;;;;;;5032879;28;20153;-77
2022/07/07 12:10:48;;;;;;;1.60;0.50;;;18.60;99.90;;;;;;5015001;28;20196;-77
2022/07/07 12:13:13;;;;;;;0.43;0.40;;;18.50;99.90;;;;;;5031522;28;20210;-76
2022/07/07 12:15:45;;;;;;;0.73;0.50;;;18.50;99.90;;;;;;5031323;28;20207;-76
2022/07/07 12:18:12;;;;;;;4.63;0.67;;;18.60;99.90;;;;;;5033047;28;20638;-77
2022/07/07 12:20:39;;;;;;;0.90;0.40;;;18.60;99.90;;;;;;5031269;28;20177;-77
2022/07/07 12:23:08;;;;;;;0.87;0.60;;;18.90;99.90;;;;;;5032638;28;20211;-77
2022/07/07 12:25:35;;;;;;;1.10;0.50;;;19.10;99.90;;;;;;5032725;28;20172;-77
2022/07/07 12:28:06;;;;;;;1.77;0.70;;;19.20;99.90;;;;;;5032790;28;20168;-77
2022/07/07 12:30:34;;;;;;;1.93;0.47;;;19.40;99.90;;;;;;5032459;28;20196;-77
2022/07/07 12:33:01;;;;;;;1.90;0.60;;;19.40;99.90;;;;;;5032556;28;20168;-77
2022/07/07 12:35:38;;;;;;;0.60;0.53;;;19.50;99.90;;;;;;5032263;28;20168;-77
2022/07/07 12:38:07;;;;;;;1.20;0.40;;;19.50;99.90;;;;;;5034001;28;20179;-77
2022/07/07 12:40:40;;;;;;;0.93;0.70;;;19.50;99.90;;;;;;5034947;28;20646;-77
2022/07/07 12:43:11;;;;;;;2.07;0.63;;;19.40;99.90;;;;;;5034915;28;20307;-78
2022/07/07 12:45:42;;;;;;;1.47;0.93;;;19.30;99.90;;;;;;5036156;28;20172;-77
2022/07/07 12:48:18;;;;;;;1.20;0.70;;;19.00;99.90;;;;;;5036324;28;20529;-77
2022/07/07 12:50:44;;;;;;;3.63;0.83;;;19.00;99.90;;;;;;5034689;28;20320;-77
2022/07/07 12:53:09;;;;;;;1.37;0.50;;;18.90;99.90;;;;;;5035981;28;20199;-77